Time;durP1;ratioP1;P1;durP2;ratioP2;P2;SDS_P1;SDS_P2;PMS_P1;PMS_P2;Temp;Humidity;BMP_temperature;BMP_pressure;BME280_temperature;BME280_humidity;BME280_pressure;Samples;Min_cycle;Max_cycle;Signal;HPM_P1;HPM_P2
2021/08/13 00:00:38;;;;;;;36.70;22.55;;;20.20;99.90;;;;;;5125420;28;20167;-68
2021/08/13 00:03:04;;;;;;;30.40;22.27;;;20.20;99.90;;;;;;5126465;28;20205;-68
2021/08/13 00:05:30;;;;;;;32.97;22.63;;;20.30;99.90;;;;;;5126326;28;20253;-67
2021/08/13 00:07:55;;;;;;;39.90;23.30;;;20.40;99.90;;;;;;5123905;28;20210;-67
2021/08/13 00:10:21;;;;;;;33.25;22.40;;;20.40;99.90;;;;;;5125029;28;20744;-67
2021/08/13 00:12:47;;;;;;;32.63;24.58;;;20.50;99.90;;;;;;5126696;28;20238;-68
2021/08/13 00:15:12;;;;;;;33.50;23.33;;;20.50;99.90;;;;;;5126352;28;20192;-67
2021/08/13 00:17:38;;;;;;;34.58;24.48;;;20.60;99.90;;;;;;5124202;28;20162;-68
2021/08/13 00:20:05;;;;;;;36.35;24.05;;;20.50;99.90;;;;;;5124571;28;20176;-68
2021/08/13 00:22:30;;;;;;;35.17;24.27;;;20.70;99.90;;;;;;5126351;28;20187;-67
2021/08/13 00:24:56;;;;;;;33.65;23.70;;;20.60;99.90;;;;;;5126360;28;20206;-68
2021/08/13 00:27:21;;;;;;;44.13;25.42;;;20.60;99.90;;;;;;5125973;28;20212;-68
2021/08/13 00:29:47;;;;;;;32.97;24.58;;;20.60;99.90;;;;;;5123786;28;20231;-67
2021/08/13 00:32:13;;;;;;;37.05;23.95;;;20.50;99.90;;;;;;5126357;28;20254;-68
2021/08/13 00:34:39;;;;;;;38.58;24.73;;;20.50;99.90;;;;;;5125645;28;20733;-67
2021/08/13 00:37:05;;;;;;;30.42;23.85;;;20.50;99.90;;;;;;5126444;28;20150;-67
2021/08/13 00:39:31;;;;;;;36.65;23.77;;;20.50;99.90;;;;;;5123512;28;20163;-68
2021/08/13 00:41:56;;;;;;;37.97;24.95;;;20.60;99.90;;;;;;5124960;28;20180;-68
2021/08/13 00:44:22;;;;;;;36.88;24.42;;;20.80;99.90;;;;;;5125922;28;20246;-68
2021/08/13 00:46:48;;;;;;;32.03;23.00;;;20.70;99.90;;;;;;5126272;28;20208;-68
2021/08/13 00:49:13;;;;;;;36.08;23.13;;;20.60;99.90;;;;;;5123273;28;20197;-68
2021/08/13 00:51:39;;;;;;;34.03;23.48;;;20.50;99.90;;;;;;5126039;28;20178;-68
2021/08/13 00:54:05;;;;;;;38.58;23.90;;;20.50;99.90;;;;;;5126053;28;20158;-68
2021/08/13 00:56:31;;;;;;;37.85;24.33;;;20.40;99.90;;;;;;5125917;28;20189;-68
2021/08/13 00:58:57;;;;;;;30.25;23.52;;;20.30;99.90;;;;;;5123622;28;20520;-67
2021/08/13 01:01:23;;;;;;;34.17;24.98;;;20.30;99.90;;;;;;5124645;28;20163;-68
2021/08/13 01:03:48;;;;;;;31.92;23.42;;;20.40;99.90;;;;;;5125789;28;20230;-67
2021/08/13 01:06:19;;;;;;;36.22;24.10;;;20.40;99.90;;;;;;5125969;28;20206;-68
2021/08/13 01:08:45;;;;;;;38.13;25.50;;;20.50;99.90;;;;;;5123371;28;20274;-68
2021/08/13 01:11:16;;;;;;;43.47;25.23;;;20.70;99.90;;;;;;5126116;28;20170;-68
2021/08/13 01:14:11;;;;;;;37.25;25.05;;;20.80;99.90;;;;;;5125747;28;20623;-68
2021/08/13 01:16:42;;;;;;;37.78;25.73;;;20.60;99.90;;;;;;5103535;28;20178;-68
2021/08/13 01:19:23;;;;;;;38.60;25.08;;;20.50;99.90;;;;;;5123203;28;20171;-68
2021/08/13 01:21:55;;;;;;;36.05;23.90;;;20.40;99.90;;;;;;5126030;28;20163;-68
2021/08/13 01:24:23;;;;;;;33.40;22.75;;;20.40;99.90;;;;;;5125821;28;20191;-67
2021/08/13 01:27:00;;;;;;;37.30;24.50;;;20.40;99.90;;;;;;5126050;28;20245;-67
2021/08/13 01:29:40;;;;;;;38.85;24.30;;;20.30;99.90;;;;;;5123126;28;20188;-67
2021/08/13 01:32:12;;;;;;;34.13;23.30;;;20.20;99.90;;;;;;5126006;28;20184;-67
2021/08/13 01:34:47;;;;;;;32.75;23.20;;;20.10;99.90;;;;;;5124008;28;20205;-68
2021/08/13 01:37:17;;;;;;;34.47;22.90;;;20.00;99.90;;;;;;5125823;28;20226;-67
2021/08/13 01:39:45;;;;;;;32.33;22.90;;;19.90;99.90;;;;;;5124689;28;20215;-67
2021/08/13 01:42:11;;;;;;;33.53;22.55;;;19.90;99.90;;;;;;5129550;28;20159;-68
2021/08/13 01:44:38;;;;;;;35.00;23.85;;;20.10;99.90;;;;;;5129237;28;20169;-68
2021/08/13 01:47:04;;;;;;;39.47;23.88;;;20.40;99.90;;;;;;5128088;28;20178;-67
2021/08/13 01:49:32;;;;;;;40.55;25.17;;;20.30;99.90;;;;;;5126413;28;20218;-67
2021/08/13 01:51:59;;;;;;;38.30;24.75;;;20.30;99.90;;;;;;5129487;28;20155;-68
2021/08/13 01:54:25;;;;;;;36.67;24.83;;;20.00;99.90;;;;;;5129043;28;20162;-68
2021/08/13 01:56:53;;;;;;;35.08;23.67;;;20.00;99.90;;;;;;5129149;28;20193;-67
2021/08/13 01:59:19;;;;;;;32.17;22.00;;;19.70;99.90;;;;;;5126688;28;20162;-67
2021/08/13 02:01:46;;;;;;;35.80;23.77;;;19.60;99.90;;;;;;5129196;28;20170;-67
2021/08/13 02:04:18;;;;;;;30.60;23.38;;;19.50;99.90;;;;;;5128676;28;20458;-67
2021/08/13 02:06:44;;;;;;;30.58;23.60;;;19.60;99.90;;;;;;5128791;28;20210;-67
2021/08/13 02:09:10;;;;;;;34.47;22.63;;;19.60;99.90;;;;;;5126242;28;20183;-68
2021/08/13 02:11:37;;;;;;;33.45;22.67;;;19.70;99.90;;;;;;5129101;28;20185;-67
2021/08/13 02:14:03;;;;;;;32.60;21.77;;;19.80;99.90;;;;;;5128829;28;20155;-67
2021/08/13 02:16:31;;;;;;;29.15;20.98;;;19.80;99.90;;;;;;5128597;28;20628;-67
2021/08/13 02:19:11;;;;;;;28.58;19.50;;;19.80;99.90;;;;;;5125997;28;20194;-68
2021/08/13 02:21:40;;;;;;;31.85;18.90;;;19.50;99.90;;;;;;5128789;28;20159;-67
2021/08/13 02:24:06;;;;;;;24.08;17.33;;;19.50;99.90;;;;;;5128687;28;20174;-68
2021/08/13 02:26:31;;;;;;;25.05;16.77;;;19.40;99.90;;;;;;5128478;28;20174;-68
2021/08/13 02:28:57;;;;;;;25.15;17.65;;;19.60;99.90;;;;;;5125921;28;20182;-67
2021/08/13 02:31:23;;;;;;;21.27;16.80;;;19.60;99.90;;;;;;5128559;28;20159;-67
2021/08/13 02:33:49;;;;;;;27.42;17.85;;;19.70;99.90;;;;;;5128259;28;20174;-67
2021/08/13 02:36:17;;;;;;;24.67;17.42;;;19.80;99.90;;;;;;5128483;27;20173;-67
2021/08/13 02:38:55;;;;;;;21.80;17.13;;;19.80;99.90;;;;;;5125841;28;20195;-67
2021/08/13 02:41:22;;;;;;;22.40;16.95;;;19.90;99.90;;;;;;5128455;28;20162;-68
2021/08/13 02:43:57;;;;;;;21.65;16.35;;;19.90;99.90;;;;;;5128318;28;20163;-67
2021/08/13 02:46:26;;;;;;;21.77;16.55;;;19.90;99.90;;;;;;5127891;27;20179;-67
2021/08/13 02:48:54;;;;;;;21.42;15.82;;;19.60;99.90;;;;;;5125472;28;20185;-68
2021/08/13 02:51:24;;;;;;;22.58;15.43;;;19.40;99.90;;;;;;5127542;28;20171;-67
2021/08/13 02:53:54;;;;;;;21.67;15.60;;;19.30;99.90;;;;;;5126616;28;20224;-68
2021/08/13 02:56:20;;;;;;;20.83;15.57;;;19.10;99.90;;;;;;5128079;28;20194;-68
2021/08/13 02:58:54;;;;;;;27.52;16.20;;;19.30;99.90;;;;;;5125334;28;20194;-67
2021/08/13 03:01:26;;;;;;;18.23;15.38;;;19.40;99.90;;;;;;5128084;28;20280;-68
2021/08/13 03:03:55;;;;;;;21.73;15.10;;;19.20;99.90;;;;;;5127441;27;20170;-67
2021/08/13 03:06:26;;;;;;;20.95;14.45;;;19.20;99.90;;;;;;5127363;28;20226;-67
2021/08/13 03:08:52;;;;;;;20.52;14.48;;;19.10;99.90;;;;;;5125070;28;20274;-67
2021/08/13 03:11:21;;;;;;;19.35;15.05;;;19.10;99.90;;;;;;5127869;28;20515;-68
2021/08/13 03:13:47;;;;;;;20.98;14.15;;;19.10;99.90;;;;;;5127520;28;20165;-67
2021/08/13 03:16:13;;;;;;;20.10;12.93;;;19.00;99.90;;;;;;5127565;28;20243;-67
2021/08/13 03:18:40;;;;;;;15.93;13.00;;;19.00;99.90;;;;;;5124848;28;20667;-68
2021/08/13 03:21:07;;;;;;;16.55;13.00;;;19.00;99.90;;;;;;5127431;28;20167;-68
2021/08/13 03:23:33;;;;;;;17.98;11.52;;;18.90;99.90;;;;;;5127407;28;20244;-68
2021/08/13 03:26:00;;;;;;;15.50;11.30;;;18.90;99.90;;;;;;5127297;28;20170;-67
2021/08/13 03:28:25;;;;;;;15.13;11.00;;;18.80;99.90;;;;;;5124492;28;20157;-68
2021/08/13 03:30:51;;;;;;;15.10;10.25;;;18.90;99.90;;;;;;5127518;28;20186;-67
2021/08/13 03:33:17;;;;;;;13.27;10.35;;;19.00;99.90;;;;;;5125555;28;20199;-67
2021/08/13 03:35:44;;;;;;;15.35;10.32;;;19.00;99.90;;;;;;5126978;28;20256;-68
2021/08/13 03:38:11;;;;;;;11.60;10.48;;;19.10;99.90;;;;;;5124557;28;20259;-68
2021/08/13 03:40:37;;;;;;;11.18;9.90;;;19.10;99.90;;;;;;5127072;28;20499;-68
2021/08/13 03:43:03;;;;;;;12.82;10.68;;;19.10;99.90;;;;;;5127198;28;20597;-68
2021/08/13 03:45:29;;;;;;;14.48;10.38;;;19.10;99.90;;;;;;5126543;28;20181;-67
2021/08/13 03:47:55;;;;;;;12.77;10.70;;;19.00;99.90;;;;;;5123017;28;20162;-68
2021/08/13 03:50:21;;;;;;;12.68;10.48;;;19.00;99.90;;;;;;5125589;28;20198;-67
2021/08/13 03:52:46;;;;;;;12.98;9.77;;;18.90;99.90;;;;;;5127014;28;20162;-67
2021/08/13 03:55:13;;;;;;;18.67;9.93;;;18.70;99.90;;;;;;5126728;28;20218;-68
2021/08/13 03:57:40;;;;;;;11.35;9.43;;;18.60;99.90;;;;;;5124800;28;20151;-67
2021/08/13 04:00:06;;;;;;;13.50;9.48;;;18.60;99.90;;;;;;5126476;28;20158;-67
2021/08/13 04:02:32;;;;;;;15.15;9.55;;;18.60;99.90;;;;;;5125691;28;20510;-67
2021/08/13 04:04:58;;;;;;;16.42;10.00;;;18.60;99.90;;;;;;5124769;28;20185;-68
2021/08/13 04:07:23;;;;;;;12.48;9.63;;;18.60;99.90;;;;;;5125964;28;20209;-68
2021/08/13 04:09:49;;;;;;;11.82;10.10;;;18.60;99.90;;;;;;5124331;28;20217;-67
2021/08/13 04:12:14;;;;;;;15.45;9.85;;;18.60;99.90;;;;;;5126642;28;20159;-68
2021/08/13 04:14:40;;;;;;;12.20;9.25;;;18.50;99.90;;;;;;5126392;28;20294;-68
2021/08/13 04:17:06;;;;;;;14.32;9.10;;;18.40;99.90;;;;;;5125445;28;20527;-67
2021/08/13 04:19:31;;;;;;;14.50;9.70;;;18.40;99.90;;;;;;5123662;28;20602;-67
2021/08/13 04:21:57;;;;;;;11.48;9.73;;;18.60;99.90;;;;;;5125357;28;20205;-67
2021/08/13 04:24:23;;;;;;;9.38;8.38;;;18.60;99.90;;;;;;5126115;28;20647;-67
2021/08/13 04:26:48;;;;;;;14.57;8.95;;;18.70;99.90;;;;;;5126378;28;20163;-67
2021/08/13 04:29:14;;;;;;;13.38;8.88;;;18.50;99.90;;;;;;5123880;28;20186;-67
2021/08/13 04:31:40;;;;;;;10.88;9.50;;;18.50;99.90;;;;;;5126213;28;20394;-68
2021/08/13 04:34:05;;;;;;;15.27;8.60;;;18.30;99.90;;;;;;5126015;28;20180;-67
2021/08/13 04:36:32;;;;;;;12.40;8.05;;;18.30;99.90;;;;;;5126039;28;20167;-67
2021/08/13 04:38:57;;;;;;;8.88;7.80;;;18.30;99.90;;;;;;5123618;28;20162;-68
2021/08/13 04:41:23;;;;;;;13.18;7.80;;;18.20;99.90;;;;;;5126065;28;20158;-67
2021/08/13 04:43:49;;;;;;;9.38;7.88;;;18.20;99.90;;;;;;5126009;28;20167;-68
2021/08/13 04:46:14;;;;;;;8.25;6.97;;;18.20;99.90;;;;;;5125995;28;20170;-67
2021/08/13 04:48:40;;;;;;;8.35;7.38;;;18.40;99.90;;;;;;5123009;28;20427;-67
2021/08/13 04:51:06;;;;;;;10.50;6.47;;;18.30;99.90;;;;;;5126144;28;20166;-67
2021/08/13 04:53:31;;;;;;;10.68;6.97;;;18.20;99.90;;;;;;5125988;28;20155;-68
2021/08/13 04:55:57;;;;;;;10.85;6.75;;;18.30;99.90;;;;;;5125853;28;20166;-68
2021/08/13 04:58:23;;;;;;;7.85;7.05;;;18.20;99.90;;;;;;5121919;28;20436;-67
2021/08/13 05:00:48;;;;;;;10.07;6.93;;;18.20;99.90;;;;;;5124882;28;20174;-67
2021/08/13 05:03:14;;;;;;;7.43;5.90;;;18.10;99.90;;;;;;5124397;28;20166;-67
2021/08/13 05:05:41;;;;;;;9.60;6.47;;;18.40;99.90;;;;;;5124374;28;20171;-67
2021/08/13 05:08:07;;;;;;;9.05;6.57;;;18.30;99.90;;;;;;5123210;28;20215;-67
2021/08/13 05:10:33;;;;;;;6.43;5.70;;;18.40;99.90;;;;;;5124603;28;20209;-67
2021/08/13 05:12:58;;;;;;;6.80;5.85;;;18.40;99.90;;;;;;5125908;28;20580;-67
2021/08/13 05:15:24;;;;;;;12.48;6.55;;;18.50;99.90;;;;;;5128642;28;20166;-67
2021/08/13 05:17:50;;;;;;;7.55;5.72;;;18.50;99.90;;;;;;5125968;28;20177;-67
2021/08/13 05:20:16;;;;;;;12.93;5.97;;;18.50;99.90;;;;;;5129643;28;20215;-67
2021/08/13 05:22:41;;;;;;;6.72;6.13;;;18.30;99.90;;;;;;5129884;28;20227;-67
2021/08/13 05:25:09;;;;;;;10.05;6.38;;;18.40;99.90;;;;;;5129560;28;20170;-68
2021/08/13 05:27:35;;;;;;;7.57;6.38;;;18.30;99.90;;;;;;5128156;28;20166;-67
2021/08/13 05:30:01;;;;;;;11.00;5.90;;;18.50;99.90;;;;;;5128943;28;20183;-67
2021/08/13 05:32:27;;;;;;;6.20;5.60;;;18.50;99.90;;;;;;5129429;28;20173;-67
2021/08/13 05:34:53;;;;;;;7.05;6.22;;;18.40;99.90;;;;;;5129228;28;20169;-67
2021/08/13 05:37:19;;;;;;;8.32;6.85;;;18.50;99.90;;;;;;5129568;28;20170;-68
2021/08/13 05:39:45;;;;;;;9.93;6.28;;;18.40;99.90;;;;;;5126849;28;20163;-68
2021/08/13 05:42:11;;;;;;;8.30;6.53;;;18.70;99.90;;;;;;5129196;28;20163;-67
2021/08/13 05:44:37;;;;;;;10.63;6.15;;;18.70;99.90;;;;;;5129154;28;20198;-67
2021/08/13 05:47:03;;;;;;;8.93;6.43;;;18.50;99.90;;;;;;5129365;28;20189;-67
2021/08/13 05:49:29;;;;;;;9.38;6.55;;;18.70;99.90;;;;;;5125064;28;20633;-68
2021/08/13 05:51:55;;;;;;;11.20;7.03;;;18.60;99.90;;;;;;5128173;28;20201;-67
2021/08/13 05:54:20;;;;;;;7.82;6.63;;;18.80;99.90;;;;;;5129191;28;20170;-68
2021/08/13 05:56:46;;;;;;;10.68;7.38;;;18.80;99.90;;;;;;5127758;28;20166;-68
2021/08/13 05:59:11;;;;;;;7.78;6.45;;;18.70;99.90;;;;;;5126519;28;20177;-67
2021/08/13 06:01:37;;;;;;;8.30;6.93;;;18.70;99.90;;;;;;5127508;28;20193;-67
2021/08/13 06:04:03;;;;;;;12.55;6.53;;;18.80;99.90;;;;;;5128819;28;20170;-67
2021/08/13 06:06:28;;;;;;;7.88;7.10;;;18.80;99.90;;;;;;5128673;28;20297;-67
2021/08/13 06:08:54;;;;;;;9.95;7.30;;;18.80;99.90;;;;;;5125233;28;20190;-67
2021/08/13 06:11:20;;;;;;;14.20;7.78;;;18.90;99.90;;;;;;5129013;28;20159;-68
2021/08/13 06:13:46;;;;;;;9.05;7.15;;;18.80;99.90;;;;;;5129056;28;20166;-67
2021/08/13 06:16:11;;;;;;;10.93;8.98;;;18.80;99.90;;;;;;5128723;28;20163;-67
2021/08/13 06:18:37;;;;;;;11.68;7.93;;;18.70;99.90;;;;;;5125817;28;20647;-68
2021/08/13 06:21:03;;;;;;;9.32;8.32;;;18.60;99.90;;;;;;5129019;28;20170;-67
2021/08/13 06:23:29;;;;;;;14.45;9.05;;;18.50;99.90;;;;;;5127278;28;20159;-68
2021/08/13 06:25:54;;;;;;;11.45;9.32;;;18.50;99.90;;;;;;5127534;28;20166;-67
2021/08/13 06:28:20;;;;;;;11.95;9.63;;;18.50;99.90;;;;;;5125974;28;20163;-67
2021/08/13 06:30:46;;;;;;;14.50;10.52;;;18.40;99.90;;;;;;5128026;28;20457;-67
2021/08/13 06:33:12;;;;;;;14.40;10.25;;;18.60;99.90;;;;;;5128185;28;20170;-68
2021/08/13 06:35:37;;;;;;;13.27;10.30;;;18.70;99.90;;;;;;5128352;28;20158;-68
2021/08/13 06:38:03;;;;;;;10.95;9.85;;;18.60;99.90;;;;;;5125969;28;20585;-68
2021/08/13 06:40:32;;;;;;;12.52;10.65;;;18.80;99.90;;;;;;5128222;28;20162;-68
2021/08/13 06:42:58;;;;;;;12.98;10.52;;;18.60;99.90;;;;;;5128450;28;20169;-68
2021/08/13 06:45:23;;;;;;;15.15;11.65;;;18.40;99.90;;;;;;5127797;28;20238;-67
2021/08/13 06:47:50;;;;;;;12.63;10.70;;;18.20;99.90;;;;;;5124474;28;20163;-67
2021/08/13 06:50:16;;;;;;;12.77;10.65;;;18.30;99.90;;;;;;5127797;28;20205;-67
2021/08/13 06:52:42;;;;;;;13.30;11.65;;;18.20;99.90;;;;;;5127515;28;20155;-67
2021/08/13 06:55:08;;;;;;;13.63;11.52;;;18.20;99.90;;;;;;5127570;28;20699;-68
2021/08/13 06:57:35;;;;;;;17.02;11.60;;;18.30;99.90;;;;;;5125141;28;20163;-67
2021/08/13 07:00:05;;;;;;;15.65;11.70;;;18.40;99.90;;;;;;5127044;28;20249;-67
2021/08/13 07:02:31;;;;;;;12.80;11.35;;;18.50;99.90;;;;;;5127525;28;20243;-68
2021/08/13 07:04:57;;;;;;;14.38;11.18;;;18.50;99.90;;;;;;5127479;28;20372;-67
2021/08/13 07:07:22;;;;;;;12.70;11.23;;;18.60;99.90;;;;;;5127289;28;20218;-67
2021/08/13 07:09:48;;;;;;;13.50;11.38;;;18.80;99.90;;;;;;5125504;28;20212;-67
2021/08/13 07:12:14;;;;;;;13.77;11.13;;;18.60;99.90;;;;;;5127843;28;20163;-68
2021/08/13 07:14:40;;;;;;;15.18;11.38;;;18.40;99.90;;;;;;5126075;28;20158;-67
2021/08/13 07:17:06;;;;;;;13.05;11.32;;;18.40;99.90;;;;;;5127388;28;20170;-67
2021/08/13 07:19:32;;;;;;;15.00;11.35;;;18.40;99.90;;;;;;5124562;28;20170;-67
2021/08/13 07:21:57;;;;;;;13.68;10.40;;;18.70;99.90;;;;;;5126243;28;20189;-68
2021/08/13 07:24:23;;;;;;;12.95;9.93;;;18.80;99.90;;;;;;5127167;28;20167;-67
2021/08/13 07:26:49;;;;;;;11.18;9.60;;;19.00;99.90;;;;;;5126716;28;20178;-68
2021/08/13 07:29:15;;;;;;;10.07;9.07;;;19.00;99.90;;;;;;5124829;28;20218;-67
2021/08/13 07:31:41;;;;;;;20.42;9.55;;;19.10;99.90;;;;;;5127072;28;20440;-68
2021/08/13 07:34:07;;;;;;;11.60;8.75;;;19.20;99.90;;;;;;5127000;28;20163;-68
2021/08/13 07:36:32;;;;;;;12.20;8.55;;;19.20;99.90;;;;;;5125328;28;20572;-67
2021/08/13 07:38:58;;;;;;;12.50;8.43;;;19.20;99.90;;;;;;5124494;28;20167;-67
2021/08/13 07:41:24;;;;;;;10.30;7.95;;;19.30;99.90;;;;;;5127081;28;20169;-67
2021/08/13 07:43:50;;;;;;;8.40;6.53;;;19.50;99.90;;;;;;5127157;28;20170;-67
2021/08/13 07:46:15;;;;;;;10.35;6.35;;;19.40;99.90;;;;;;5127034;28;20167;-67
2021/08/13 07:48:41;;;;;;;10.38;6.97;;;19.40;99.90;;;;;;5124102;28;20177;-67
2021/08/13 07:51:07;;;;;;;8.75;7.07;;;19.40;99.90;;;;;;5127084;28;20159;-67
2021/08/13 07:53:33;;;;;;;7.38;6.22;;;19.50;99.90;;;;;;5126747;28;20159;-67
2021/08/13 07:55:59;;;;;;;6.75;5.38;;;19.80;99.90;;;;;;5126355;28;20255;-67
2021/08/13 07:58:24;;;;;;;7.10;5.80;;;20.10;99.90;;;;;;5124025;28;20163;-67
2021/08/13 08:00:52;;;;;;;7.72;5.50;;;20.20;99.90;;;;;;5126755;28;20154;-67
2021/08/13 08:03:18;;;;;;;5.57;4.95;;;20.00;99.90;;;;;;5126393;28;20167;-67
2021/08/13 08:05:44;;;;;;;5.85;4.70;;;19.90;99.90;;;;;;5126251;28;20171;-67
2021/08/13 08:08:09;;;;;;;7.57;4.30;;;19.70;99.90;;;;;;5122523;28;20221;-67
2021/08/13 08:10:35;;;;;;;7.55;4.40;;;19.70;99.90;;;;;;5126150;28;20190;-67
2021/08/13 08:13:01;;;;;;;6.60;4.35;;;19.70;99.90;;;;;;5126626;28;20167;-67
2021/08/13 08:15:27;;;;;;;5.88;4.07;;;19.90;99.90;;;;;;5126333;28;20159;-67
2021/08/13 08:17:52;;;;;;;10.50;4.20;;;20.00;99.90;;;;;;5123973;28;20817;-68
2021/08/13 08:20:18;;;;;;;14.40;4.47;;;19.90;99.90;;;;;;5126004;28;20174;-67
2021/08/13 08:22:44;;;;;;;5.35;4.38;;;20.20;99.90;;;;;;5126093;28;20162;-67
2021/08/13 08:25:10;;;;;;;7.55;4.15;;;20.10;99.90;;;;;;5126180;28;20179;-67
2021/08/13 08:27:36;;;;;;;7.85;3.80;;;20.10;99.90;;;;;;5124564;28;20646;-67
2021/08/13 08:30:03;;;;;;;7.20;3.90;;;20.40;99.90;;;;;;5124297;28;20286;-67
2021/08/13 08:32:29;;;;;;;4.07;3.40;;;20.70;99.90;;;;;;5124138;28;20191;-67
2021/08/13 08:34:55;;;;;;;10.60;3.60;;;20.50;99.90;;;;;;5125264;28;20238;-67
2021/08/13 08:37:21;;;;;;;5.13;3.15;;;20.30;99.90;;;;;;5125995;28;20174;-68
2021/08/13 08:39:47;;;;;;;9.90;3.17;;;20.20;99.90;;;;;;5122311;28;20685;-67
2021/08/13 08:42:16;;;;;;;6.78;3.80;;;20.20;99.90;;;;;;5126173;28;20170;-67
2021/08/13 08:44:42;;;;;;;6.95;3.63;;;20.20;99.90;;;;;;5125968;28;20165;-67
2021/08/13 08:47:09;;;;;;;6.50;3.72;;;20.10;99.90;;;;;;5125873;28;20170;-67
2021/08/13 08:49:40;;;;;;;7.45;3.85;;;20.20;99.90;;;;;;5124473;28;20189;-67
2021/08/13 08:52:10;;;;;;;8.95;3.90;;;20.20;99.90;;;;;;5130248;28;20158;-68
2021/08/13 08:54:37;;;;;;;5.15;3.25;;;20.40;99.90;;;;;;5128638;28;20163;-68
2021/08/13 08:57:04;;;;;;;7.63;3.47;;;20.50;99.90;;;;;;5128748;28;20229;-67
2021/08/13 08:59:31;;;;;;;8.27;3.60;;;20.40;99.90;;;;;;5127430;28;20190;-68
2021/08/13 09:01:57;;;;;;;4.78;3.67;;;20.40;99.90;;;;;;5130270;28;20167;-68
2021/08/13 09:04:23;;;;;;;4.30;3.25;;;20.30;99.90;;;;;;5129486;28;20234;-67
2021/08/13 09:06:48;;;;;;;9.27;3.50;;;20.40;99.90;;;;;;5128142;28;20222;-67
2021/08/13 09:09:14;;;;;;;6.05;3.10;;;20.50;99.90;;;;;;5127339;28;20206;-67
2021/08/13 09:11:41;;;;;;;9.20;4.13;;;20.70;99.90;;;;;;5128388;28;20667;-67
2021/08/13 09:14:10;;;;;;;8.18;4.13;;;20.90;99.90;;;;;;5130143;28;20204;-67
2021/08/13 09:16:36;;;;;;;7.88;4.05;;;20.90;99.90;;;;;;5129429;28;20177;-68
2021/08/13 09:19:07;;;;;;;6.70;3.55;;;21.00;99.90;;;;;;5127089;28;20175;-67
2021/08/13 09:21:34;;;;;;;7.78;3.40;;;21.30;99.90;;;;;;5129843;28;20159;-68
2021/08/13 09:24:11;;;;;;;7.97;3.72;;;21.40;99.90;;;;;;5129878;28;20166;-67
2021/08/13 09:26:42;;;;;;;6.20;3.65;;;21.80;99.90;;;;;;5129412;28;20170;-67
2021/08/13 09:29:17;;;;;;;5.45;3.67;;;21.80;99.90;;;;;;5126973;28;20202;-68
2021/08/13 09:31:50;;;;;;;13.15;4.07;;;21.80;99.90;;;;;;5129408;28;20155;-68
2021/08/13 09:34:17;;;;;;;5.13;3.15;;;21.90;99.90;;;;;;5128913;28;20163;-67
2021/08/13 09:36:51;;;;;;;5.10;3.13;;;22.10;99.90;;;;;;5127640;28;20481;-68
2021/08/13 09:39:24;;;;;;;6.22;3.28;;;21.90;99.90;;;;;;5127229;28;20158;-68
2021/08/13 09:41:55;;;;;;;4.78;3.55;;;21.70;99.90;;;;;;5128148;28;20647;-69
2021/08/13 09:44:33;;;;;;;8.27;3.45;;;21.70;99.90;;;;;;5129181;28;20612;-68
2021/08/13 09:47:00;;;;;;;9.60;3.20;;;21.70;99.90;;;;;;5127707;28;20181;-68
2021/08/13 09:49:28;;;;;;;7.05;2.97;;;22.00;99.90;;;;;;5124362;28;20186;-68
2021/08/13 09:51:53;;;;;;;6.38;3.22;;;22.40;99.90;;;;;;5129124;28;20155;-68
2021/08/13 09:54:28;;;;;;;7.75;3.45;;;22.70;99.90;;;;;;5127969;28;20166;-68
2021/08/13 09:57:06;;;;;;;10.77;2.97;;;22.70;99.90;;;;;;5127421;28;20234;-68
2021/08/13 09:59:32;;;;;;;3.80;2.72;;;22.40;99.90;;;;;;5124851;28;20171;-68
2021/08/13 10:01:57;;;;;;;4.68;3.15;;;22.60;99.90;;;;;;5129016;28;20167;-68
2021/08/13 10:04:33;;;;;;;8.70;3.15;;;22.90;99.90;;;;;;5128173;28;20170;-68
2021/08/13 10:06:59;;;;;;;4.45;3.10;;;23.00;99.90;;;;;;5128310;28;20217;-68
2021/08/13 10:09:29;;;;;;;6.32;3.35;;;23.30;99.90;;;;;;5126210;28;20182;-68
2021/08/13 10:12:03;;;;;;;5.70;2.92;;;23.60;99.90;;;;;;5128944;28;20172;-68
2021/08/13 10:14:42;;;;;;;5.78;3.05;;;23.60;99.90;;;;;;5128238;28;20515;-68
2021/08/13 10:17:19;;;;;;;4.95;3.00;;;23.70;99.90;;;;;;5127399;28;20314;-68
2021/08/13 10:19:50;;;;;;;6.63;3.47;;;23.80;99.90;;;;;;5125485;28;20175;-68
2021/08/13 10:22:18;;;;;;;9.00;3.90;;;23.70;99.90;;;;;;5128693;28;20163;-68
2021/08/13 10:24:45;;;;;;;4.13;3.13;;;23.50;99.90;;;;;;5128314;28;20163;-68
2021/08/13 10:27:13;;;;;;;5.97;2.97;;;23.30;99.90;;;;;;5127170;28;20174;-68
2021/08/13 10:29:39;;;;;;;6.78;3.00;;;23.30;99.90;;;;;;5125642;28;20190;-68
2021/08/13 10:32:05;;;;;;;6.65;2.92;;;23.20;99.90;;;;;;5128506;28;20211;-68
2021/08/13 10:34:31;;;;;;;4.97;2.65;;;23.00;99.90;;;;;;5128030;28;20174;-68
2021/08/13 10:36:57;;;;;;;4.20;2.58;;;23.30;99.90;;;;;;5128287;28;20159;-68
2021/08/13 10:39:27;;;;;;;5.10;2.88;;;23.40;99.90;;;;;;5125663;28;20189;-68
2021/08/13 10:41:59;;;;;;;4.80;2.88;;;23.20;99.90;;;;;;5128444;28;20166;-68
2021/08/13 10:44:29;;;;;;;6.88;3.28;;;23.00;99.90;;;;;;5127981;28;20159;-68
2021/08/13 10:46:59;;;;;;;5.60;3.35;;;23.10;99.90;;;;;;5128001;28;20177;-68
2021/08/13 10:49:26;;;;;;;6.05;2.60;;;23.00;99.90;;;;;;5124994;28;20188;-68
2021/08/13 10:52:04;;;;;;;4.50;2.53;;;23.00;99.90;;;;;;5126803;28;20159;-68
2021/08/13 10:54:42;;;;;;;11.30;3.35;;;23.00;99.90;;;;;;5127679;28;20170;-68
2021/08/13 10:57:12;;;;;;;6.85;2.90;;;22.60;99.90;;;;;;5127889;28;20163;-68
2021/08/13 10:59:40;;;;;;;5.38;3.10;;;22.90;99.90;;;;;;5124965;28;20158;-68
2021/08/13 11:02:11;;;;;;;5.45;2.80;;;23.00;99.90;;;;;;5127931;28;20158;-68
2021/08/13 11:04:48;;;;;;;4.20;2.45;;;23.00;99.90;;;;;;5127105;28;20177;-68
2021/08/13 11:07:14;;;;;;;4.60;2.92;;;22.90;99.90;;;;;;5127710;28;20213;-68
2021/08/13 11:09:41;;;;;;;5.63;2.95;;;22.90;99.90;;;;;;5123379;28;20194;-68
2021/08/13 11:12:10;;;;;;;10.93;2.78;;;23.10;99.90;;;;;;5127153;28;20242;-68
2021/08/13 11:14:55;;;;;;;9.00;2.83;;;23.20;99.90;;;;;;5127341;28;20155;-68
2021/08/13 11:17:38;;;;;;;4.93;2.60;;;23.50;99.90;;;;;;5125504;28;20175;-68
2021/08/13 11:20:06;;;;;;;6.40;2.97;;;23.60;99.90;;;;;;5125227;28;20191;-68
2021/08/13 11:22:37;;;;;;;4.57;2.75;;;23.50;99.90;;;;;;5126978;28;20163;-68
2021/08/13 11:25:11;;;;;;;5.88;2.70;;;23.60;99.90;;;;;;5125653;28;20163;-68
2021/08/13 11:27:37;;;;;;;6.18;2.83;;;23.80;99.90;;;;;;5124973;28;20171;-68
2021/08/13 11:30:05;;;;;;;5.82;2.80;;;24.10;99.90;;;;;;5126272;28;20258;-68
2021/08/13 11:32:35;;;;;;;10.23;3.15;;;24.40;99.90;;;;;;5126810;28;20218;-68
2021/08/13 11:35:09;;;;;;;6.53;2.78;;;24.10;99.90;;;;;;5126693;28;20194;-68
2021/08/13 11:37:37;;;;;;;6.30;2.85;;;23.80;99.90;;;;;;5124127;28;20180;-68
2021/08/13 11:40:03;;;;;;;8.90;3.03;;;23.70;99.90;;;;;;5126508;28;20162;-68
2021/08/13 11:42:32;;;;;;;10.07;3.10;;;23.50;99.90;;;;;;5126843;28;20372;-68
2021/08/13 11:44:59;;;;;;;7.65;2.97;;;23.60;99.90;;;;;;5127066;28;20163;-68
2021/08/13 11:47:25;;;;;;;6.32;2.80;;;23.80;99.90;;;;;;5126469;28;20183;-68
2021/08/13 11:49:51;;;;;;;8.43;2.92;;;24.20;99.90;;;;;;5124497;28;20201;-68
2021/08/13 11:52:21;;;;;;;8.45;3.85;;;24.20;99.90;;;;;;5126868;28;20155;-68
2021/08/13 11:54:47;;;;;;;10.55;3.63;;;24.40;99.90;;;;;;5126569;28;20612;-68
2021/08/13 11:57:16;;;;;;;7.90;3.38;;;24.50;99.90;;;;;;5126243;28;20200;-68
2021/08/13 11:59:43;;;;;;;8.40;3.55;;;24.50;99.90;;;;;;5123826;28;20169;-68
2021/08/13 12:02:09;;;;;;;12.13;3.33;;;24.70;99.90;;;;;;5126775;28;20211;-68
2021/08/13 12:04:35;;;;;;;6.65;3.10;;;24.70;99.90;;;;;;5126236;28;20175;-68
2021/08/13 12:07:08;;;;;;;8.18;3.80;;;24.90;99.90;;;;;;5125057;28;20239;-68
2021/08/13 12:09:38;;;;;;;10.50;3.92;;;25.60;99.90;;;;;;5123960;28;20178;-68
2021/08/13 12:12:09;;;;;;;9.60;3.20;;;25.40;99.90;;;;;;5126706;28;20162;-68
2021/08/13 12:14:36;;;;;;;8.98;3.78;;;25.70;99.90;;;;;;5126476;28;20166;-69
2021/08/13 12:17:02;;;;;;;7.05;3.30;;;25.80;99.90;;;;;;5126314;28;20176;-68
2021/08/13 12:19:28;;;;;;;12.95;4.70;;;25.50;99.90;;;;;;5123419;28;20171;-68
2021/08/13 12:21:59;;;;;;;13.23;3.90;;;25.90;99.90;;;;;;5125174;28;20163;-68
2021/08/13 12:24:39;;;;;;;9.32;3.75;;;26.20;99.90;;;;;;5124414;28;20194;-68
2021/08/13 12:27:10;;;;;;;7.75;3.60;;;26.40;99.90;;;;;;5126174;28;20190;-68
2021/08/13 12:29:37;;;;;;;7.28;3.85;;;25.70;99.90;;;;;;5123612;28;20228;-67
2021/08/13 12:32:05;;;;;;;7.55;3.38;;;25.00;99.90;;;;;;5126212;28;20238;-67
2021/08/13 12:34:33;;;;;;;10.50;3.83;;;25.00;99.90;;;;;;5125604;28;20188;-67
2021/08/13 12:37:10;;;;;;;11.48;3.60;;;24.80;99.90;;;;;;5125710;28;20186;-68
2021/08/13 12:39:40;;;;;;;10.73;3.92;;;24.80;99.90;;;;;;5122741;28;20214;-68